sensor_id;sensor_type;location;lat;lon;timestamp;P1;durP1;ratioP1;P2;durP2;ratioP2
77262;SDS011;66373;52.334;4.806;2023-04-01T00:00:48;18.02;;;10.68;;
77262;SDS011;66373;52.334;4.806;2023-04-01T00:03:15;20.40;;;9.35;;
77262;SDS011;66373;52.334;4.806;2023-04-01T00:05:42;19.58;;;10.20;;
77262;SDS011;66373;52.334;4.806;2023-04-01T00:08:10;17.80;;;9.30;;
77262;SDS011;66373;52.334;4.806;2023-04-01T00:10:39;17.65;;;9.65;;
77262;SDS011;66373;52.334;4.806;2023-04-01T00:13:06;15.80;;;8.27;;
77262;SDS011;66373;52.334;4.806;2023-04-01T00:15:34;16.88;;;9.25;;
77262;SDS011;66373;52.334;4.806;2023-04-01T00:18:02;18.92;;;8.48;;
77262;SDS011;66373;52.334;4.806;2023-04-01T00:20:29;18.20;;;8.57;;
77262;SDS011;66373;52.334;4.806;2023-04-01T00:22:57;15.68;;;9.05;;
77262;SDS011;66373;52.334;4.806;2023-04-01T00:25:25;15.38;;;7.60;;
77262;SDS011;66373;52.334;4.806;2023-04-01T00:27:53;13.25;;;7.40;;
77262;SDS011;66373;52.334;4.806;2023-04-01T00:30:21;15.18;;;7.90;;
77262;SDS011;66373;52.334;4.806;2023-04-01T00:32:51;12.82;;;7.65;;
77262;SDS011;66373;52.334;4.806;2023-04-01T00:35:18;13.73;;;7.55;;
77262;SDS011;66373;52.334;4.806;2023-04-01T00:37:46;13.50;;;7.53;;
77262;SDS011;66373;52.334;4.806;2023-04-01T00:40:21;13.40;;;7.20;;
77262;SDS011;66373;52.334;4.806;2023-04-01T00:42:51;12.90;;;7.15;;
77262;SDS011;66373;52.334;4.806;2023-04-01T00:45:27;15.20;;;7.70;;
77262;SDS011;66373;52.334;4.806;2023-04-01T00:47:57;12.65;;;7.32;;
77262;SDS011;66373;52.334;4.806;2023-04-01T00:50:28;11.10;;;6.55;;
77262;SDS011;66373;52.334;4.806;2023-04-01T00:52:57;13.77;;;6.93;;
77262;SDS011;66373;52.334;4.806;2023-04-01T00:55:26;12.25;;;6.45;;
77262;SDS011;66373;52.334;4.806;2023-04-01T00:57:57;13.90;;;6.55;;
77262;SDS011;66373;52.334;4.806;2023-04-01T01:00:27;14.18;;;7.07;;
77262;SDS011;66373;52.334;4.806;2023-04-01T01:02:55;12.50;;;5.90;;
77262;SDS011;66373;52.334;4.806;2023-04-01T01:05:23;13.13;;;6.47;;
77262;SDS011;66373;52.334;4.806;2023-04-01T01:08:04;9.32;;;5.75;;
77262;SDS011;66373;52.334;4.806;2023-04-01T01:10:42;13.68;;;6.40;;
77262;SDS011;66373;52.334;4.806;2023-04-01T01:13:16;10.55;;;5.80;;
77262;SDS011;66373;52.334;4.806;2023-04-01T01:15:50;10.77;;;5.75;;
77262;SDS011;66373;52.334;4.806;2023-04-01T01:18:26;10.43;;;5.85;;
77262;SDS011;66373;52.334;4.806;2023-04-01T01:21:14;12.10;;;5.90;;
77262;SDS011;66373;52.334;4.806;2023-04-01T01:24:06;10.75;;;5.80;;
77262;SDS011;66373;52.334;4.806;2023-04-01T01:32:34;9.20;;;4.78;;
77262;SDS011;66373;52.334;4.806;2023-04-01T01:35:22;11.25;;;5.47;;
77262;SDS011;66373;52.334;4.806;2023-04-01T01:37:55;10.93;;;5.85;;
77262;SDS011;66373;52.334;4.806;2023-04-01T01:40:26;8.05;;;5.40;;
77262;SDS011;66373;52.334;4.806;2023-04-01T01:42:56;9.48;;;5.72;;
77262;SDS011;66373;52.334;4.806;2023-04-01T01:45:26;10.77;;;5.65;;
77262;SDS011;66373;52.334;4.806;2023-04-01T01:47:55;9.43;;;5.40;;
77262;SDS011;66373;52.334;4.806;2023-04-01T01:50:25;8.55;;;4.65;;
77262;SDS011;66373;52.334;4.806;2023-04-01T01:53:00;11.32;;;5.72;;
77262;SDS011;66373;52.334;4.806;2023-04-01T01:55:29;11.27;;;5.15;;
77262;SDS011;66373;52.334;4.806;2023-04-01T01:57:59;9.25;;;4.80;;
77262;SDS011;66373;52.334;4.806;2023-04-01T02:00:30;9.23;;;4.80;;
77262;SDS011;66373;52.334;4.806;2023-04-01T02:02:59;9.02;;;4.47;;
77262;SDS011;66373;52.334;4.806;2023-04-01T02:05:28;9.45;;;4.55;;
77262;SDS011;66373;52.334;4.806;2023-04-01T02:08:05;8.98;;;4.60;;
77262;SDS011;66373;52.334;4.806;2023-04-01T02:10:35;8.75;;;4.63;;
77262;SDS011;66373;52.334;4.806;2023-04-01T02:13:07;7.20;;;4.18;;
77262;SDS011;66373;52.334;4.806;2023-04-01T02:15:41;8.63;;;4.68;;
77262;SDS011;66373;52.334;4.806;2023-04-01T02:18:11;10.15;;;4.72;;
77262;SDS011;66373;52.334;4.806;2023-04-01T02:20:41;7.80;;;4.35;;
77262;SDS011;66373;52.334;4.806;2023-04-01T02:23:09;10.35;;;4.78;;
77262;SDS011;66373;52.334;4.806;2023-04-01T02:25:37;8.88;;;4.90;;
77262;SDS011;66373;52.334;4.806;2023-04-01T02:28:06;7.00;;;4.25;;
77262;SDS011;66373;52.334;4.806;2023-04-01T02:30:35;7.95;;;4.72;;
77262;SDS011;66373;52.334;4.806;2023-04-01T02:33:06;8.00;;;4.60;;
77262;SDS011;66373;52.334;4.806;2023-04-01T02:35:33;9.10;;;4.40;;
77262;SDS011;66373;52.334;4.806;2023-04-01T02:38:03;7.25;;;4.10;;
77262;SDS011;66373;52.334;4.806;2023-04-01T02:40:40;8.65;;;4.70;;
77262;SDS011;66373;52.334;4.806;2023-04-01T02:43:09;7.47;;;4.20;;
77262;SDS011;66373;52.334;4.806;2023-04-01T02:45:36;6.85;;;4.10;;
77262;SDS011;66373;52.334;4.806;2023-04-01T02:48:03;7.93;;;3.95;;
77262;SDS011;66373;52.334;4.806;2023-04-01T02:50:31;8.00;;;4.40;;
77262;SDS011;66373;52.334;4.806;2023-04-01T02:52:58;8.70;;;4.55;;
77262;SDS011;66373;52.334;4.806;2023-04-01T02:55:26;7.30;;;4.35;;
77262;SDS011;66373;52.334;4.806;2023-04-01T02:57:53;7.80;;;4.00;;
77262;SDS011;66373;52.334;4.806;2023-04-01T03:00:20;6.30;;;3.70;;
77262;SDS011;66373;52.334;4.806;2023-04-01T03:02:47;7.38;;;4.15;;
77262;SDS011;66373;52.334;4.806;2023-04-01T03:05:14;6.57;;;3.60;;
77262;SDS011;66373;52.334;4.806;2023-04-01T03:07:41;7.85;;;3.90;;
77262;SDS011;66373;52.334;4.806;2023-04-01T03:10:08;5.40;;;4.00;;
77262;SDS011;66373;52.334;4.806;2023-04-01T03:12:37;7.78;;;3.67;;
77262;SDS011;66373;52.334;4.806;2023-04-01T03:15:05;5.55;;;3.55;;
77262;SDS011;66373;52.334;4.806;2023-04-01T03:17:32;5.40;;;3.75;;
77262;SDS011;66373;52.334;4.806;2023-04-01T03:19:59;7.07;;;4.97;;
77262;SDS011;66373;52.334;4.806;2023-04-01T03:22:28;8.55;;;5.10;;
77262;SDS011;66373;52.334;4.806;2023-04-01T03:24:55;5.30;;;4.00;;
77262;SDS011;66373;52.334;4.806;2023-04-01T03:27:22;7.32;;;4.03;;
77262;SDS011;66373;52.334;4.806;2023-04-01T03:29:50;7.57;;;4.60;;
77262;SDS011;66373;52.334;4.806;2023-04-01T03:32:18;6.53;;;3.97;;
77262;SDS011;66373;52.334;4.806;2023-04-01T03:34:45;6.40;;;3.80;;
77262;SDS011;66373;52.334;4.806;2023-04-01T03:37:12;7.32;;;3.70;;
77262;SDS011;66373;52.334;4.806;2023-04-01T03:39:39;6.22;;;4.07;;
77262;SDS011;66373;52.334;4.806;2023-04-01T03:42:06;5.43;;;3.80;;
77262;SDS011;66373;52.334;4.806;2023-04-01T03:44:33;6.13;;;3.40;;
77262;SDS011;66373;52.334;4.806;2023-04-01T03:47:01;4.78;;;3.80;;
77262;SDS011;66373;52.334;4.806;2023-04-01T03:49:28;5.50;;;3.78;;
77262;SDS011;66373;52.334;4.806;2023-04-01T03:51:57;5.25;;;3.42;;
77262;SDS011;66373;52.334;4.806;2023-04-01T03:54:24;7.03;;;4.10;;
77262;SDS011;66373;52.334;4.806;2023-04-01T03:56:51;6.53;;;3.45;;
77262;SDS011;66373;52.334;4.806;2023-04-01T03:59:19;6.20;;;3.58;;
77262;SDS011;66373;52.334;4.806;2023-04-01T04:01:46;6.28;;;3.90;;
77262;SDS011;66373;52.334;4.806;2023-04-01T04:04:14;6.32;;;3.80;;
77262;SDS011;66373;52.334;4.806;2023-04-01T04:06:42;5.95;;;3.70;;
77262;SDS011;66373;52.334;4.806;2023-04-01T04:09:08;5.15;;;3.67;;
77262;SDS011;66373;52.334;4.806;2023-04-01T04:11:35;5.45;;;3.58;;
77262;SDS011;66373;52.334;4.806;2023-04-01T04:14:02;4.07;;;3.03;;
77262;SDS011;66373;52.334;4.806;2023-04-01T04:16:29;4.53;;;2.90;;
77262;SDS011;66373;52.334;4.806;2023-04-01T04:19:00;4.43;;;3.17;;
77262;SDS011;66373;52.334;4.806;2023-04-01T04:21:28;3.85;;;3.03;;
77262;SDS011;66373;52.334;4.806;2023-04-01T04:23:55;4.43;;;3.20;;
77262;SDS011;66373;52.334;4.806;2023-04-01T04:26:22;4.53;;;3.05;;
77262;SDS011;66373;52.334;4.806;2023-04-01T04:28:55;4.55;;;3.42;;
77262;SDS011;66373;52.334;4.806;2023-04-01T04:31:22;5.50;;;3.10;;
77262;SDS011;66373;52.334;4.806;2023-04-01T04:33:52;4.75;;;3.13;;
77262;SDS011;66373;52.334;4.806;2023-04-01T04:36:20;4.60;;;3.13;;
77262;SDS011;66373;52.334;4.806;2023-04-01T04:38:50;3.53;;;2.80;;
77262;SDS011;66373;52.334;4.806;2023-04-01T04:41:18;3.55;;;2.88;;
77262;SDS011;66373;52.334;4.806;2023-04-01T04:43:49;4.07;;;3.08;;
77262;SDS011;66373;52.334;4.806;2023-04-01T04:46:17;4.50;;;2.70;;
77262;SDS011;66373;52.334;4.806;2023-04-01T04:48:46;4.28;;;2.92;;
77262;SDS011;66373;52.334;4.806;2023-04-01T04:51:14;4.40;;;3.47;;
77262;SDS011;66373;52.334;4.806;2023-04-01T04:53:41;3.88;;;2.72;;
77262;SDS011;66373;52.334;4.806;2023-04-01T04:56:10;4.88;;;3.10;;
77262;SDS011;66373;52.334;4.806;2023-04-01T04:58:44;3.08;;;2.50;;
77262;SDS011;66373;52.334;4.806;2023-04-01T05:01:16;3.25;;;2.58;;
77262;SDS011;66373;52.334;4.806;2023-04-01T05:03:43;3.42;;;2.80;;
77262;SDS011;66373;52.334;4.806;2023-04-01T05:06:11;2.85;;;2.55;;
77262;SDS011;66373;52.334;4.806;2023-04-01T05:08:43;3.10;;;2.78;;
77262;SDS011;66373;52.334;4.806;2023-04-01T05:11:13;3.25;;;2.92;;
77262;SDS011;66373;52.334;4.806;2023-04-01T05:13:44;3.53;;;2.63;;
77262;SDS011;66373;52.334;4.806;2023-04-01T05:16:12;3.90;;;2.88;;
77262;SDS011;66373;52.334;4.806;2023-04-01T05:18:40;3.15;;;2.85;;
77262;SDS011;66373;52.334;4.806;2023-04-01T05:21:08;2.85;;;2.42;;
77262;SDS011;66373;52.334;4.806;2023-04-01T05:23:36;4.43;;;2.58;;
77262;SDS011;66373;52.334;4.806;2023-04-01T05:26:04;3.70;;;2.65;;
77262;SDS011;66373;52.334;4.806;2023-04-01T05:28:34;2.53;;;2.20;;
77262;SDS011;66373;52.334;4.806;2023-04-01T05:31:02;3.22;;;2.60;;
77262;SDS011;66373;52.334;4.806;2023-04-01T05:33:33;2.88;;;2.65;;
77262;SDS011;66373;52.334;4.806;2023-04-01T05:36:09;2.42;;;2.13;;
77262;SDS011;66373;52.334;4.806;2023-04-01T05:38:38;4.13;;;2.67;;
77262;SDS011;66373;52.334;4.806;2023-04-01T05:41:07;3.28;;;2.42;;
77262;SDS011;66373;52.334;4.806;2023-04-01T05:43:40;3.20;;;2.15;;
77262;SDS011;66373;52.334;4.806;2023-04-01T05:46:27;3.67;;;2.00;;
77262;SDS011;66373;52.334;4.806;2023-04-01T05:49:01;3.53;;;2.33;;
77262;SDS011;66373;52.334;4.806;2023-04-01T05:51:29;3.00;;;2.72;;
77262;SDS011;66373;52.334;4.806;2023-04-01T05:53:56;4.68;;;3.20;;
77262;SDS011;66373;52.334;4.806;2023-04-01T05:56:23;5.47;;;3.60;;
77262;SDS011;66373;52.334;4.806;2023-04-01T05:58:53;5.05;;;3.53;;
77262;SDS011;66373;52.334;4.806;2023-04-01T06:03:49;5.22;;;3.42;;
77262;SDS011;66373;52.334;4.806;2023-04-01T06:06:16;4.20;;;2.90;;
77262;SDS011;66373;52.334;4.806;2023-04-01T06:12:15;5.28;;;3.88;;
77262;SDS011;66373;52.334;4.806;2023-04-01T06:15:02;5.88;;;3.10;;
77262;SDS011;66373;52.334;4.806;2023-04-01T06:17:43;5.68;;;3.03;;
77262;SDS011;66373;52.334;4.806;2023-04-01T06:20:24;6.88;;;3.53;;
77262;SDS011;66373;52.334;4.806;2023-04-01T06:23:07;4.55;;;2.88;;
77262;SDS011;66373;52.334;4.806;2023-04-01T06:25:52;4.93;;;3.10;;
77262;SDS011;66373;52.334;4.806;2023-04-01T06:28:44;2.55;;;2.35;;
77262;SDS011;66373;52.334;4.806;2023-04-01T06:31:28;3.70;;;2.55;;
77262;SDS011;66373;52.334;4.806;2023-04-01T06:34:08;4.90;;;2.40;;
77262;SDS011;66373;52.334;4.806;2023-04-01T06:39:59;2.75;;;2.28;;
77262;SDS011;66373;52.334;4.806;2023-04-01T06:42:39;4.32;;;2.58;;
77262;SDS011;66373;52.334;4.806;2023-04-01T06:45:37;4.53;;;2.30;;
77262;SDS011;66373;52.334;4.806;2023-04-01T06:49:02;4.72;;;2.40;;
77262;SDS011;66373;52.334;4.806;2023-04-01T06:51:52;5.75;;;2.90;;
77262;SDS011;66373;52.334;4.806;2023-04-01T06:54:46;8.82;;;2.83;;
77262;SDS011;66373;52.334;4.806;2023-04-01T06:57:34;3.58;;;2.42;;
77262;SDS011;66373;52.334;4.806;2023-04-01T07:00:11;5.05;;;2.22;;
77262;SDS011;66373;52.334;4.806;2023-04-01T07:02:41;3.35;;;2.85;;
77262;SDS011;66373;52.334;4.806;2023-04-01T08:45:28;10.57;;;2.30;;
77262;SDS011;66373;52.334;4.806;2023-04-01T08:51:27;3.00;;;1.90;;
77262;SDS011;66373;52.334;4.806;2023-04-01T08:54:15;7.43;;;2.03;;
77262;SDS011;66373;52.334;4.806;2023-04-01T08:57:04;4.97;;;2.50;;
77262;SDS011;66373;52.334;4.806;2023-04-01T09:00:01;6.72;;;1.92;;
77262;SDS011;66373;52.334;4.806;2023-04-01T09:03:36;7.00;;;2.00;;
77262;SDS011;66373;52.334;4.806;2023-04-01T09:09:29;3.15;;;2.00;;
77262;SDS011;66373;52.334;4.806;2023-04-01T09:12:19;4.40;;;2.10;;
77262;SDS011;66373;52.334;4.806;2023-04-01T09:21:16;5.22;;;2.03;;
77262;SDS011;66373;52.334;4.806;2023-04-01T09:26:56;2.22;;;1.92;;
77262;SDS011;66373;52.334;4.806;2023-04-01T09:35:47;5.72;;;2.58;;
77262;SDS011;66373;52.334;4.806;2023-04-01T09:38:21;2.35;;;2.15;;
77262;SDS011;66373;52.334;4.806;2023-04-01T09:40:56;5.35;;;3.47;;
77262;SDS011;66373;52.334;4.806;2023-04-01T09:43:45;4.32;;;2.22;;
77262;SDS011;66373;52.334;4.806;2023-04-01T09:46:31;6.10;;;2.45;;
77262;SDS011;66373;52.334;4.806;2023-04-01T09:49:26;3.20;;;1.92;;
77262;SDS011;66373;52.334;4.806;2023-04-01T09:52:18;5.03;;;2.30;;
77262;SDS011;66373;52.334;4.806;2023-04-01T10:02:42;8.73;;;1.95;;
77262;SDS011;66373;52.334;4.806;2023-04-01T10:05:42;4.43;;;2.90;;
77262;SDS011;66373;52.334;4.806;2023-04-01T10:08:51;12.98;;;2.35;;
77262;SDS011;66373;52.334;4.806;2023-04-01T10:12:02;3.22;;;2.25;;
77262;SDS011;66373;52.334;4.806;2023-04-01T10:15:00;3.88;;;2.67;;
77262;SDS011;66373;52.334;4.806;2023-04-01T10:28:06;4.43;;;2.00;;
77262;SDS011;66373;52.334;4.806;2023-04-01T10:31:25;4.97;;;2.53;;
77262;SDS011;66373;52.334;4.806;2023-04-01T10:34:27;5.05;;;2.30;;
77262;SDS011;66373;52.334;4.806;2023-04-01T10:37:15;5.95;;;2.20;;
77262;SDS011;66373;52.334;4.806;2023-04-01T10:40:16;4.88;;;2.30;;
77262;SDS011;66373;52.334;4.806;2023-04-01T10:43:31;6.38;;;2.60;;
77262;SDS011;66373;52.334;4.806;2023-04-01T10:55:50;3.47;;;2.58;;
77262;SDS011;66373;52.334;4.806;2023-04-01T10:58:59;5.95;;;2.38;;
77262;SDS011;66373;52.334;4.806;2023-04-01T11:02:27;5.93;;;2.63;;
77262;SDS011;66373;52.334;4.806;2023-04-01T11:05:58;3.10;;;2.80;;
77262;SDS011;66373;52.334;4.806;2023-04-01T11:18:41;9.70;;;3.28;;
77262;SDS011;66373;52.334;4.806;2023-04-01T11:25:13;8.15;;;3.15;;
77262;SDS011;66373;52.334;4.806;2023-04-01T11:28:21;6.05;;;2.88;;
77262;SDS011;66373;52.334;4.806;2023-04-01T11:31:12;11.20;;;3.65;;
77262;SDS011;66373;52.334;4.806;2023-04-01T11:33:53;6.32;;;3.50;;
77262;SDS011;66373;52.334;4.806;2023-04-01T11:36:26;13.18;;;3.58;;
77262;SDS011;66373;52.334;4.806;2023-04-01T11:39:18;8.35;;;3.00;;
77262;SDS011;66373;52.334;4.806;2023-04-01T11:42:15;6.88;;;3.25;;
77262;SDS011;66373;52.334;4.806;2023-04-01T11:45:17;5.57;;;3.67;;
77262;SDS011;66373;52.334;4.806;2023-04-01T11:48:03;9.20;;;3.20;;
77262;SDS011;66373;52.334;4.806;2023-04-01T11:50:43;5.78;;;3.20;;
77262;SDS011;66373;52.334;4.806;2023-04-01T11:53:27;8.73;;;3.30;;
77262;SDS011;66373;52.334;4.806;2023-04-01T11:56:13;10.80;;;4.68;;
77262;SDS011;66373;52.334;4.806;2023-04-01T11:59:18;5.50;;;3.10;;
77262;SDS011;66373;52.334;4.806;2023-04-01T12:02:18;6.85;;;3.25;;
77262;SDS011;66373;52.334;4.806;2023-04-01T12:04:58;10.25;;;3.67;;
77262;SDS011;66373;52.334;4.806;2023-04-01T12:07:50;10.35;;;3.75;;
77262;SDS011;66373;52.334;4.806;2023-04-01T12:10:29;10.85;;;3.53;;
77262;SDS011;66373;52.334;4.806;2023-04-01T12:13:04;8.27;;;3.63;;
77262;SDS011;66373;52.334;4.806;2023-04-01T12:15:44;10.93;;;3.50;;
77262;SDS011;66373;52.334;4.806;2023-04-01T12:18:27;7.03;;;4.03;;
77262;SDS011;66373;52.334;4.806;2023-04-01T12:21:06;17.58;;;4.00;;
77262;SDS011;66373;52.334;4.806;2023-04-01T12:26:52;18.33;;;4.80;;
77262;SDS011;66373;52.334;4.806;2023-04-01T12:29:38;16.98;;;5.20;;
77262;SDS011;66373;52.334;4.806;2023-04-01T12:32:23;18.45;;;5.07;;
77262;SDS011;66373;52.334;4.806;2023-04-01T12:35:07;22.67;;;5.22;;
77262;SDS011;66373;52.334;4.806;2023-04-01T12:37:47;19.02;;;6.13;;
77262;SDS011;66373;52.334;4.806;2023-04-01T12:43:34;22.90;;;6.82;;
77262;SDS011;66373;52.334;4.806;2023-04-01T12:46:32;16.30;;;6.25;;
77262;SDS011;66373;52.334;4.806;2023-04-01T12:49:20;28.48;;;7.07;;
77262;SDS011;66373;52.334;4.806;2023-04-01T12:52:07;28.63;;;7.13;;
77262;SDS011;66373;52.334;4.806;2023-04-01T12:58:06;27.48;;;6.90;;
77262;SDS011;66373;52.334;4.806;2023-04-01T13:03:53;23.05;;;6.82;;
77262;SDS011;66373;52.334;4.806;2023-04-01T13:06:44;27.08;;;8.43;;
77262;SDS011;66373;52.334;4.806;2023-04-01T13:09:29;23.83;;;7.28;;
77262;SDS011;66373;52.334;4.806;2023-04-01T13:12:10;21.00;;;7.47;;
77262;SDS011;66373;52.334;4.806;2023-04-01T13:14:57;20.65;;;7.65;;
77262;SDS011;66373;52.334;4.806;2023-04-01T13:17:45;20.77;;;8.00;;
77262;SDS011;66373;52.334;4.806;2023-04-01T13:20:22;29.13;;;8.88;;
77262;SDS011;66373;52.334;4.806;2023-04-01T13:23:03;27.55;;;8.52;;
77262;SDS011;66373;52.334;4.806;2023-04-01T13:25:43;29.45;;;8.00;;
77262;SDS011;66373;52.334;4.806;2023-04-01T13:28:21;33.63;;;8.23;;
77262;SDS011;66373;52.334;4.806;2023-04-01T13:33:25;28.27;;;8.05;;
77262;SDS011;66373;52.334;4.806;2023-04-01T13:36:00;27.45;;;8.35;;
77262;SDS011;66373;52.334;4.806;2023-04-01T13:41:47;26.20;;;8.68;;
77262;SDS011;66373;52.334;4.806;2023-04-01T13:44:33;25.55;;;7.28;;
77262;SDS011;66373;52.334;4.806;2023-04-01T13:47:10;26.45;;;8.52;;
77262;SDS011;66373;52.334;4.806;2023-04-01T13:49:57;32.42;;;8.25;;
77262;SDS011;66373;52.334;4.806;2023-04-01T13:52:47;22.48;;;7.63;;
77262;SDS011;66373;52.334;4.806;2023-04-01T13:58:33;23.50;;;7.70;;
77262;SDS011;66373;52.334;4.806;2023-04-01T14:01:10;24.88;;;7.88;;
77262;SDS011;66373;52.334;4.806;2023-04-01T14:03:58;23.80;;;8.20;;
77262;SDS011;66373;52.334;4.806;2023-04-01T14:06:39;23.65;;;7.43;;
77262;SDS011;66373;52.334;4.806;2023-04-01T14:12:12;24.67;;;8.15;;
77262;SDS011;66373;52.334;4.806;2023-04-01T14:14:53;18.85;;;6.95;;
77262;SDS011;66373;52.334;4.806;2023-04-01T14:17:31;15.23;;;8.27;;
77262;SDS011;66373;52.334;4.806;2023-04-01T14:20:22;28.60;;;8.20;;
77262;SDS011;66373;52.334;4.806;2023-04-01T14:23:07;21.33;;;7.70;;
77262;SDS011;66373;52.334;4.806;2023-04-01T14:25:55;23.20;;;7.53;;
77262;SDS011;66373;52.334;4.806;2023-04-01T14:28:46;24.48;;;7.13;;
77262;SDS011;66373;52.334;4.806;2023-04-01T14:34:26;17.90;;;7.15;;
77262;SDS011;66373;52.334;4.806;2023-04-01T14:37:14;13.85;;;6.35;;
77262;SDS011;66373;52.334;4.806;2023-04-01T14:42:58;19.88;;;7.05;;
77262;SDS011;66373;52.334;4.806;2023-04-01T14:45:52;19.70;;;7.68;;
77262;SDS011;66373;52.334;4.806;2023-04-01T14:48:48;20.90;;;7.13;;
77262;SDS011;66373;52.334;4.806;2023-04-01T14:51:18;16.02;;;6.32;;
77262;SDS011;66373;52.334;4.806;2023-04-01T14:53:58;18.30;;;6.32;;
77262;SDS011;66373;52.334;4.806;2023-04-01T14:56:39;20.90;;;6.18;;
77262;SDS011;66373;52.334;4.806;2023-04-01T14:59:14;21.80;;;6.72;;
77262;SDS011;66373;52.334;4.806;2023-04-01T15:01:55;26.63;;;6.32;;
77262;SDS011;66373;52.334;4.806;2023-04-01T15:04:41;15.93;;;5.95;;
77262;SDS011;66373;52.334;4.806;2023-04-01T15:07:21;11.73;;;6.20;;
77262;SDS011;66373;52.334;4.806;2023-04-01T15:10:09;21.95;;;7.32;;
77262;SDS011;66373;52.334;4.806;2023-04-01T15:12:49;15.52;;;6.20;;
77262;SDS011;66373;52.334;4.806;2023-04-01T15:15:30;14.10;;;5.53;;
77262;SDS011;66373;52.334;4.806;2023-04-01T15:18:07;11.65;;;5.22;;
77262;SDS011;66373;52.334;4.806;2023-04-01T15:20:46;11.23;;;5.45;;
77262;SDS011;66373;52.334;4.806;2023-04-01T15:23:25;10.55;;;5.10;;
77262;SDS011;66373;52.334;4.806;2023-04-01T15:26:11;14.55;;;6.85;;
77262;SDS011;66373;52.334;4.806;2023-04-01T15:28:57;12.50;;;5.38;;
77262;SDS011;66373;52.334;4.806;2023-04-01T15:31:37;14.20;;;5.35;;
77262;SDS011;66373;52.334;4.806;2023-04-01T15:34:18;12.60;;;5.65;;
77262;SDS011;66373;52.334;4.806;2023-04-01T15:36:56;9.55;;;5.85;;
77262;SDS011;66373;52.334;4.806;2023-04-01T15:39:34;13.50;;;6.22;;
77262;SDS011;66373;52.334;4.806;2023-04-01T15:42:15;11.65;;;5.25;;
77262;SDS011;66373;52.334;4.806;2023-04-01T15:44:53;9.90;;;5.53;;
77262;SDS011;66373;52.334;4.806;2023-04-01T15:47:33;12.68;;;5.07;;
77262;SDS011;66373;52.334;4.806;2023-04-01T15:50:45;14.00;;;5.63;;
77262;SDS011;66373;52.334;4.806;2023-04-01T15:53:26;8.75;;;5.28;;
77262;SDS011;66373;52.334;4.806;2023-04-01T15:56:13;10.68;;;6.18;;
77262;SDS011;66373;52.334;4.806;2023-04-01T16:01:26;15.48;;;9.10;;
77262;SDS011;66373;52.334;4.806;2023-04-01T16:04:06;12.75;;;8.75;;
77262;SDS011;66373;52.334;4.806;2023-04-01T16:09:44;27.05;;;15.02;;
77262;SDS011;66373;52.334;4.806;2023-04-01T16:12:28;27.63;;;18.75;;
77262;SDS011;66373;52.334;4.806;2023-04-01T16:15:09;38.90;;;23.38;;
77262;SDS011;66373;52.334;4.806;2023-04-01T16:17:56;29.67;;;18.15;;
77262;SDS011;66373;52.334;4.806;2023-04-01T16:20:48;39.25;;;23.00;;
77262;SDS011;66373;52.334;4.806;2023-04-01T16:23:36;41.45;;;24.48;;
77262;SDS011;66373;52.334;4.806;2023-04-01T16:26:15;48.53;;;30.27;;
77262;SDS011;66373;52.334;4.806;2023-04-01T16:28:50;66.28;;;40.03;;
77262;SDS011;66373;52.334;4.806;2023-04-01T16:31:32;76.72;;;42.58;;
77262;SDS011;66373;52.334;4.806;2023-04-01T16:34:08;66.82;;;39.88;;
77262;SDS011;66373;52.334;4.806;2023-04-01T16:36:42;64.63;;;39.90;;
77262;SDS011;66373;52.334;4.806;2023-04-01T16:45:19;72.60;;;42.83;;
77262;SDS011;66373;52.334;4.806;2023-04-01T16:47:54;69.68;;;37.47;;
77262;SDS011;66373;52.334;4.806;2023-04-01T16:50:24;71.88;;;41.58;;
77262;SDS011;66373;52.334;4.806;2023-04-01T16:52:59;74.68;;;39.80;;
77262;SDS011;66373;52.334;4.806;2023-04-01T16:55:41;78.90;;;38.50;;
77262;SDS011;66373;52.334;4.806;2023-04-01T16:58:18;66.25;;;37.53;;
77262;SDS011;66373;52.334;4.806;2023-04-01T17:00:50;64.00;;;37.45;;
77262;SDS011;66373;52.334;4.806;2023-04-01T17:03:23;72.07;;;38.05;;
77262;SDS011;66373;52.334;4.806;2023-04-01T17:06:00;70.57;;;39.75;;
77262;SDS011;66373;52.334;4.806;2023-04-01T17:08:45;67.55;;;37.78;;
77262;SDS011;66373;52.334;4.806;2023-04-01T17:11:26;67.78;;;39.03;;
77262;SDS011;66373;52.334;4.806;2023-04-01T17:14:13;66.70;;;38.05;;
77262;SDS011;66373;52.334;4.806;2023-04-01T17:17:01;65.40;;;37.22;;
77262;SDS011;66373;52.334;4.806;2023-04-01T17:19:46;68.88;;;39.08;;
77262;SDS011;66373;52.334;4.806;2023-04-01T17:22:27;73.55;;;39.53;;
77262;SDS011;66373;52.334;4.806;2023-04-01T17:27:43;73.10;;;39.80;;
77262;SDS011;66373;52.334;4.806;2023-04-01T17:33:09;73.32;;;42.60;;
77262;SDS011;66373;52.334;4.806;2023-04-01T17:35:58;77.03;;;42.80;;
77262;SDS011;66373;52.334;4.806;2023-04-01T17:38:38;66.45;;;41.00;;
77262;SDS011;66373;52.334;4.806;2023-04-01T17:41:26;64.47;;;38.95;;
77262;SDS011;66373;52.334;4.806;2023-04-01T17:44:09;73.82;;;42.90;;
77262;SDS011;66373;52.334;4.806;2023-04-01T17:46:50;74.40;;;40.00;;
77262;SDS011;66373;52.334;4.806;2023-04-01T17:49:39;72.65;;;39.45;;
77262;SDS011;66373;52.334;4.806;2023-04-01T17:52:21;70.47;;;38.67;;
77262;SDS011;66373;52.334;4.806;2023-04-01T17:54:55;68.78;;;38.10;;
77262;SDS011;66373;52.334;4.806;2023-04-01T17:57:34;67.65;;;40.03;;
77262;SDS011;66373;52.334;4.806;2023-04-01T18:00:14;66.50;;;39.78;;
77262;SDS011;66373;52.334;4.806;2023-04-01T18:03:00;68.50;;;39.40;;
77262;SDS011;66373;52.334;4.806;2023-04-01T18:05:59;69.95;;;39.47;;
77262;SDS011;66373;52.334;4.806;2023-04-01T18:08:34;71.60;;;38.10;;
77262;SDS011;66373;52.334;4.806;2023-04-01T18:11:25;62.80;;;37.75;;
77262;SDS011;66373;52.334;4.806;2023-04-01T18:17:21;67.80;;;36.30;;
77262;SDS011;66373;52.334;4.806;2023-04-01T18:20:05;65.90;;;38.17;;
77262;SDS011;66373;52.334;4.806;2023-04-01T18:22:53;56.72;;;34.90;;
77262;SDS011;66373;52.334;4.806;2023-04-01T18:25:28;60.90;;;35.47;;
77262;SDS011;66373;52.334;4.806;2023-04-01T18:28:13;59.78;;;35.30;;
77262;SDS011;66373;52.334;4.806;2023-04-01T18:30:51;60.53;;;35.90;;
77262;SDS011;66373;52.334;4.806;2023-04-01T18:33:24;57.65;;;32.90;;
77262;SDS011;66373;52.334;4.806;2023-04-01T18:36:02;57.50;;;35.03;;
77262;SDS011;66373;52.334;4.806;2023-04-01T18:38:44;58.05;;;33.47;;
77262;SDS011;66373;52.334;4.806;2023-04-01T18:41:19;55.42;;;34.17;;
77262;SDS011;66373;52.334;4.806;2023-04-01T18:44:04;54.90;;;33.75;;
77262;SDS011;66373;52.334;4.806;2023-04-01T18:46:47;49.08;;;33.17;;
77262;SDS011;66373;52.334;4.806;2023-04-01T18:49:21;47.30;;;29.45;;
77262;SDS011;66373;52.334;4.806;2023-04-01T18:51:56;49.15;;;31.30;;
77262;SDS011;66373;52.334;4.806;2023-04-01T18:54:30;49.78;;;30.63;;
77262;SDS011;66373;52.334;4.806;2023-04-01T18:57:04;56.42;;;32.08;;
77262;SDS011;66373;52.334;4.806;2023-04-01T18:59:39;48.35;;;30.50;;
77262;SDS011;66373;52.334;4.806;2023-04-01T19:04:56;46.08;;;26.23;;
77262;SDS011;66373;52.334;4.806;2023-04-01T19:07:40;39.78;;;28.15;;
77262;SDS011;66373;52.334;4.806;2023-04-01T19:10:14;42.65;;;26.88;;
77262;SDS011;66373;52.334;4.806;2023-04-01T19:12:46;47.35;;;27.15;;
77262;SDS011;66373;52.334;4.806;2023-04-01T19:15:26;42.92;;;25.90;;
77262;SDS011;66373;52.334;4.806;2023-04-01T19:21:06;39.55;;;25.35;;
77262;SDS011;66373;52.334;4.806;2023-04-01T19:23:47;47.42;;;26.42;;
77262;SDS011;66373;52.334;4.806;2023-04-01T19:26:36;42.70;;;24.98;;
77262;SDS011;66373;52.334;4.806;2023-04-01T19:29:13;40.08;;;22.63;;
77262;SDS011;66373;52.334;4.806;2023-04-01T19:31:58;38.28;;;22.40;;
77262;SDS011;66373;52.334;4.806;2023-04-01T19:34:37;35.20;;;21.40;;
77262;SDS011;66373;52.334;4.806;2023-04-01T19:37:25;36.92;;;23.52;;
77262;SDS011;66373;52.334;4.806;2023-04-01T19:40:04;30.17;;;20.45;;